Lone Star Executive Airport Houston US
ICAO: KCXO
IATA: CXO
Category: Medium
Scheduled Services: No

Elevation: 245 ft
TransAlt. 18000 ft.

Airport Communications:
HOUSTON APP/DEP:119.7
ASOS:118.325
CLNC DEL:119.55
RDO:122.2
CTAF/UNICOM:122.95

KCXO Zoom In..

If you have problems with the map follow the link
https://www.worldairports.se/pages/airport.php?
ICAO=KCXO

Runways:

(A) RW 01 length 5000 ft width 100 ft
---- / hdg 12

(B) RW 14 length 6000 ft width 150 ft
ILS 108.70 / hdg 140

(C) RW 19 length 5000 ft width 100 ft
---- / hdg 192

(D) RW 32 length 6000 ft width 150 ft
---- / hdg 320

Location; KCXO
Day. 16 / Time. 02.53 Zulu
* Altimeter: 30.25
* Temperature: 04° c. 39.2°f.
* Wind from: 000° Speed 00 kn.
Dewpoint: 04° c.
Visibility: 10 Statute Miles.
Clouds: Clear (automated report).

KCXO 160253Z AUTO 00000KT 10SM CLR 04/04 A3025 RMK AO2 SLP243 T00390039 51008


Wind - Calm.

 
 
jpsmedia.com for Web Design worldairports.se 2018   terms of use